sensor_id;sensor_type;location;lat;lon;timestamp;P1;durP1;ratioP1;P2;durP2;ratioP2
10605;SDS011;5350;42.698;23.148;2023-04-25T00:01:20;0.90;;;0.90;;
10605;SDS011;5350;42.698;23.148;2023-04-25T00:03:47;1.27;;;0.90;;
10605;SDS011;5350;42.698;23.148;2023-04-25T00:06:14;5.73;;;0.87;;
10605;SDS011;5350;42.698;23.148;2023-04-25T00:08:41;4.30;;;1.40;;
10605;SDS011;5350;42.698;23.148;2023-04-25T00:11:07;5.93;;;1.53;;
10605;SDS011;5350;42.698;23.148;2023-04-25T00:13:36;5.87;;;1.40;;
10605;SDS011;5350;42.698;23.148;2023-04-25T00:16:02;5.50;;;1.53;;
10605;SDS011;5350;42.698;23.148;2023-04-25T00:18:29;3.47;;;0.63;;
10605;SDS011;5350;42.698;23.148;2023-04-25T00:20:58;5.80;;;1.53;;
10605;SDS011;5350;42.698;23.148;2023-04-25T00:23:25;3.60;;;1.47;;
10605;SDS011;5350;42.698;23.148;2023-04-25T00:25:52;3.10;;;1.17;;
10605;SDS011;5350;42.698;23.148;2023-04-25T00:28:18;2.40;;;1.00;;
10605;SDS011;5350;42.698;23.148;2023-04-25T00:30:46;2.30;;;0.90;;
10605;SDS011;5350;42.698;23.148;2023-04-25T00:33:13;1.10;;;0.80;;
10605;SDS011;5350;42.698;23.148;2023-04-25T00:35:40;1.50;;;0.80;;
10605;SDS011;5350;42.698;23.148;2023-04-25T00:38:06;2.47;;;0.60;;
10605;SDS011;5350;42.698;23.148;2023-04-25T00:40:33;0.73;;;0.60;;
10605;SDS011;5350;42.698;23.148;2023-04-25T00:43:01;0.43;;;0.40;;
10605;SDS011;5350;42.698;23.148;2023-04-25T00:45:28;1.07;;;0.67;;
10605;SDS011;5350;42.698;23.148;2023-04-25T00:47:56;0.30;;;0.30;;
10605;SDS011;5350;42.698;23.148;2023-04-25T00:50:23;0.50;;;0.50;;
10605;SDS011;5350;42.698;23.148;2023-04-25T00:52:50;0.90;;;0.47;;
10605;SDS011;5350;42.698;23.148;2023-04-25T00:55:18;0.90;;;0.70;;
10605;SDS011;5350;42.698;23.148;2023-04-25T00:57:45;1.10;;;0.80;;
10605;SDS011;5350;42.698;23.148;2023-04-25T01:00:12;1.17;;;1.17;;
10605;SDS011;5350;42.698;23.148;2023-04-25T01:02:40;1.30;;;1.20;;
10605;SDS011;5350;42.698;23.148;2023-04-25T01:05:09;2.10;;;1.00;;
10605;SDS011;5350;42.698;23.148;2023-04-25T01:07:37;1.30;;;1.10;;
10605;SDS011;5350;42.698;23.148;2023-04-25T01:10:04;1.20;;;1.10;;
10605;SDS011;5350;42.698;23.148;2023-04-25T01:12:32;1.73;;;0.90;;
10605;SDS011;5350;42.698;23.148;2023-04-25T01:15:00;2.00;;;1.03;;
10605;SDS011;5350;42.698;23.148;2023-04-25T01:17:27;1.50;;;1.03;;
10605;SDS011;5350;42.698;23.148;2023-04-25T01:19:54;1.83;;;1.27;;
10605;SDS011;5350;42.698;23.148;2023-04-25T01:22:22;1.87;;;1.30;;
10605;SDS011;5350;42.698;23.148;2023-04-25T01:24:49;4.47;;;1.17;;
10605;SDS011;5350;42.698;23.148;2023-04-25T01:27:16;1.20;;;1.10;;
10605;SDS011;5350;42.698;23.148;2023-04-25T01:29:45;1.90;;;1.27;;
10605;SDS011;5350;42.698;23.148;2023-04-25T01:32:12;2.00;;;1.80;;
10605;SDS011;5350;42.698;23.148;2023-04-25T01:34:40;2.33;;;1.80;;
10605;SDS011;5350;42.698;23.148;2023-04-25T01:37:06;1.93;;;1.80;;
10605;SDS011;5350;42.698;23.148;2023-04-25T01:39:34;2.07;;;1.87;;
10605;SDS011;5350;42.698;23.148;2023-04-25T01:42:01;3.10;;;2.17;;
10605;SDS011;5350;42.698;23.148;2023-04-25T01:44:28;2.17;;;2.07;;
10605;SDS011;5350;42.698;23.148;2023-04-25T01:46:55;2.33;;;1.33;;
10605;SDS011;5350;42.698;23.148;2023-04-25T01:49:21;2.60;;;2.40;;
10605;SDS011;5350;42.698;23.148;2023-04-25T01:51:48;2.70;;;2.50;;
10605;SDS011;5350;42.698;23.148;2023-04-25T01:54:15;3.30;;;3.07;;
10605;SDS011;5350;42.698;23.148;2023-04-25T01:56:49;2.67;;;2.47;;
10605;SDS011;5350;42.698;23.148;2023-04-25T01:59:18;4.50;;;3.00;;
10605;SDS011;5350;42.698;23.148;2023-04-25T02:01:46;3.33;;;3.10;;
10605;SDS011;5350;42.698;23.148;2023-04-25T02:04:13;4.07;;;3.67;;
10605;SDS011;5350;42.698;23.148;2023-04-25T02:06:40;4.00;;;2.77;;
10605;SDS011;5350;42.698;23.148;2023-04-25T02:09:06;4.60;;;4.20;;
10605;SDS011;5350;42.698;23.148;2023-04-25T02:11:33;4.57;;;3.93;;
10605;SDS011;5350;42.698;23.148;2023-04-25T02:14:01;7.43;;;4.37;;
10605;SDS011;5350;42.698;23.148;2023-04-25T02:16:28;6.27;;;5.37;;
10605;SDS011;5350;42.698;23.148;2023-04-25T02:18:55;4.83;;;4.43;;
10605;SDS011;5350;42.698;23.148;2023-04-25T02:21:22;5.93;;;3.50;;
10605;SDS011;5350;42.698;23.148;2023-04-25T02:23:49;6.97;;;6.27;;
10605;SDS011;5350;42.698;23.148;2023-04-25T02:26:17;5.30;;;4.80;;
10605;SDS011;5350;42.698;23.148;2023-04-25T02:28:43;7.53;;;5.57;;
10605;SDS011;5350;42.698;23.148;2023-04-25T02:31:11;9.37;;;6.87;;
10605;SDS011;5350;42.698;23.148;2023-04-25T02:33:38;8.40;;;6.60;;
10605;SDS011;5350;42.698;23.148;2023-04-25T02:36:05;7.30;;;6.27;;
10605;SDS011;5350;42.698;23.148;2023-04-25T02:38:32;3.97;;;3.57;;
10605;SDS011;5350;42.698;23.148;2023-04-25T02:40:59;5.97;;;5.37;;
10605;SDS011;5350;42.698;23.148;2023-04-25T02:43:26;7.90;;;6.77;;
10605;SDS011;5350;42.698;23.148;2023-04-25T02:45:53;7.33;;;5.73;;
10605;SDS011;5350;42.698;23.148;2023-04-25T02:48:21;5.20;;;4.70;;
10605;SDS011;5350;42.698;23.148;2023-04-25T02:50:48;6.00;;;4.63;;
10605;SDS011;5350;42.698;23.148;2023-04-25T02:53:14;6.67;;;6.00;;
10605;SDS011;5350;42.698;23.148;2023-04-25T02:55:41;9.97;;;6.73;;
10605;SDS011;5350;42.698;23.148;2023-04-25T02:58:08;8.87;;;6.60;;
10605;SDS011;5350;42.698;23.148;2023-04-25T03:00:35;5.73;;;5.00;;
10605;SDS011;5350;42.698;23.148;2023-04-25T03:03:02;7.97;;;6.87;;
10605;SDS011;5350;42.698;23.148;2023-04-25T03:05:30;6.07;;;4.60;;
10605;SDS011;5350;42.698;23.148;2023-04-25T03:07:57;6.00;;;5.07;;
10605;SDS011;5350;42.698;23.148;2023-04-25T03:10:23;11.83;;;5.67;;
10605;SDS011;5350;42.698;23.148;2023-04-25T03:12:50;5.63;;;4.27;;
10605;SDS011;5350;42.698;23.148;2023-04-25T03:15:17;11.47;;;6.33;;
10605;SDS011;5350;42.698;23.148;2023-04-25T03:17:44;8.10;;;6.30;;
10605;SDS011;5350;42.698;23.148;2023-04-25T03:20:11;8.23;;;5.63;;
10605;SDS011;5350;42.698;23.148;2023-04-25T03:22:39;6.93;;;4.97;;
10605;SDS011;5350;42.698;23.148;2023-04-25T03:25:06;8.13;;;5.67;;
10605;SDS011;5350;42.698;23.148;2023-04-25T03:27:33;5.03;;;4.30;;
10605;SDS011;5350;42.698;23.148;2023-04-25T03:30:00;9.50;;;5.67;;
10605;SDS011;5350;42.698;23.148;2023-04-25T03:32:27;5.50;;;4.87;;
10605;SDS011;5350;42.698;23.148;2023-04-25T03:34:54;5.80;;;4.40;;
10605;SDS011;5350;42.698;23.148;2023-04-25T03:37:20;7.50;;;6.30;;
10605;SDS011;5350;42.698;23.148;2023-04-25T03:39:48;5.67;;;4.37;;
10605;SDS011;5350;42.698;23.148;2023-04-25T03:42:15;5.13;;;3.57;;
10605;SDS011;5350;42.698;23.148;2023-04-25T03:44:42;4.50;;;4.13;;
10605;SDS011;5350;42.698;23.148;2023-04-25T03:47:09;5.00;;;4.40;;
10605;SDS011;5350;42.698;23.148;2023-04-25T03:49:36;4.90;;;3.87;;
10605;SDS011;5350;42.698;23.148;2023-04-25T03:52:02;6.60;;;4.13;;
10605;SDS011;5350;42.698;23.148;2023-04-25T03:54:29;5.97;;;4.00;;
10605;SDS011;5350;42.698;23.148;2023-04-25T03:56:57;5.07;;;4.50;;
10605;SDS011;5350;42.698;23.148;2023-04-25T03:59:24;5.80;;;4.97;;
10605;SDS011;5350;42.698;23.148;2023-04-25T04:01:51;6.50;;;5.40;;
10605;SDS011;5350;42.698;23.148;2023-04-25T04:04:18;6.23;;;3.60;;
10605;SDS011;5350;42.698;23.148;2023-04-25T04:06:44;6.20;;;4.10;;
10605;SDS011;5350;42.698;23.148;2023-04-25T04:09:11;4.53;;;4.13;;
10605;SDS011;5350;42.698;23.148;2023-04-25T04:11:38;3.37;;;3.07;;
10605;SDS011;5350;42.698;23.148;2023-04-25T04:14:06;3.63;;;3.33;;
10605;SDS011;5350;42.698;23.148;2023-04-25T04:16:35;4.40;;;3.63;;
10605;SDS011;5350;42.698;23.148;2023-04-25T04:19:02;2.87;;;2.63;;
10605;SDS011;5350;42.698;23.148;2023-04-25T04:21:28;5.80;;;3.03;;
10605;SDS011;5350;42.698;23.148;2023-04-25T04:23:55;3.10;;;2.63;;
10605;SDS011;5350;42.698;23.148;2023-04-25T04:26:22;6.57;;;4.47;;
10605;SDS011;5350;42.698;23.148;2023-04-25T04:28:49;4.37;;;3.03;;
10605;SDS011;5350;42.698;23.148;2023-04-25T04:31:18;6.50;;;2.73;;
10605;SDS011;5350;42.698;23.148;2023-04-25T04:33:45;3.40;;;2.67;;
10605;SDS011;5350;42.698;23.148;2023-04-25T04:36:12;3.43;;;3.13;;
10605;SDS011;5350;42.698;23.148;2023-04-25T04:38:38;5.40;;;3.90;;
10605;SDS011;5350;42.698;23.148;2023-04-25T04:41:07;3.83;;;3.37;;
10605;SDS011;5350;42.698;23.148;2023-04-25T04:43:34;3.07;;;2.63;;
10605;SDS011;5350;42.698;23.148;2023-04-25T04:46:01;5.80;;;5.03;;
10605;SDS011;5350;42.698;23.148;2023-04-25T04:48:32;3.10;;;2.80;;
10605;SDS011;5350;42.698;23.148;2023-04-25T04:50:59;3.33;;;2.47;;
10605;SDS011;5350;42.698;23.148;2023-04-25T04:53:26;4.43;;;4.03;;
10605;SDS011;5350;42.698;23.148;2023-04-25T04:55:53;5.63;;;4.10;;
10605;SDS011;5350;42.698;23.148;2023-04-25T04:58:19;4.07;;;3.00;;
10605;SDS011;5350;42.698;23.148;2023-04-25T05:00:46;6.50;;;3.90;;
10605;SDS011;5350;42.698;23.148;2023-04-25T05:03:13;4.93;;;3.03;;
10605;SDS011;5350;42.698;23.148;2023-04-25T05:05:41;3.80;;;3.03;;
10605;SDS011;5350;42.698;23.148;2023-04-25T05:08:08;5.40;;;3.97;;
10605;SDS011;5350;42.698;23.148;2023-04-25T05:10:35;4.80;;;4.40;;
10605;SDS011;5350;42.698;23.148;2023-04-25T05:13:01;5.97;;;4.33;;
10605;SDS011;5350;42.698;23.148;2023-04-25T05:15:28;6.37;;;4.57;;
10605;SDS011;5350;42.698;23.148;2023-04-25T05:17:54;5.87;;;3.80;;
10605;SDS011;5350;42.698;23.148;2023-04-25T05:20:21;4.33;;;3.93;;
10605;SDS011;5350;42.698;23.148;2023-04-25T05:22:49;4.80;;;4.03;;
10605;SDS011;5350;42.698;23.148;2023-04-25T05:25:16;5.73;;;4.23;;
10605;SDS011;5350;42.698;23.148;2023-04-25T05:27:43;4.00;;;3.70;;
10605;SDS011;5350;42.698;23.148;2023-04-25T05:30:10;3.70;;;3.07;;
10605;SDS011;5350;42.698;23.148;2023-04-25T05:32:37;2.83;;;1.77;;
10605;SDS011;5350;42.698;23.148;2023-04-25T05:35:04;2.33;;;2.13;;
10605;SDS011;5350;42.698;23.148;2023-04-25T05:37:31;6.27;;;3.57;;
10605;SDS011;5350;42.698;23.148;2023-04-25T05:39:59;7.40;;;3.60;;
10605;SDS011;5350;42.698;23.148;2023-04-25T05:42:26;3.83;;;3.43;;
10605;SDS011;5350;42.698;23.148;2023-04-25T05:44:53;5.80;;;3.23;;
10605;SDS011;5350;42.698;23.148;2023-04-25T05:47:19;3.80;;;3.00;;
10605;SDS011;5350;42.698;23.148;2023-04-25T05:49:46;4.93;;;3.80;;
10605;SDS011;5350;42.698;23.148;2023-04-25T05:52:13;3.17;;;2.87;;
10605;SDS011;5350;42.698;23.148;2023-04-25T05:54:40;4.17;;;3.07;;
10605;SDS011;5350;42.698;23.148;2023-04-25T05:57:08;4.73;;;3.70;;
10605;SDS011;5350;42.698;23.148;2023-04-25T05:59:34;4.03;;;3.60;;
10605;SDS011;5350;42.698;23.148;2023-04-25T06:02:01;3.80;;;3.30;;
10605;SDS011;5350;42.698;23.148;2023-04-25T06:04:28;6.90;;;3.40;;
10605;SDS011;5350;42.698;23.148;2023-04-25T06:06:55;3.13;;;2.53;;
10605;SDS011;5350;42.698;23.148;2023-04-25T06:09:22;3.30;;;3.00;;
10605;SDS011;5350;42.698;23.148;2023-04-25T06:11:48;2.63;;;2.43;;
10605;SDS011;5350;42.698;23.148;2023-04-25T06:14:16;6.87;;;3.63;;
10605;SDS011;5350;42.698;23.148;2023-04-25T06:16:43;6.40;;;4.00;;
10605;SDS011;5350;42.698;23.148;2023-04-25T06:19:10;4.00;;;3.63;;
10605;SDS011;5350;42.698;23.148;2023-04-25T06:21:36;4.37;;;3.53;;
10605;SDS011;5350;42.698;23.148;2023-04-25T06:24:03;7.90;;;5.33;;
10605;SDS011;5350;42.698;23.148;2023-04-25T06:26:30;4.67;;;3.60;;
10605;SDS011;5350;42.698;23.148;2023-04-25T06:28:57;4.37;;;3.10;;
10605;SDS011;5350;42.698;23.148;2023-04-25T06:31:25;5.07;;;4.27;;
10605;SDS011;5350;42.698;23.148;2023-04-25T06:33:53;6.53;;;4.30;;
10605;SDS011;5350;42.698;23.148;2023-04-25T06:36:20;4.97;;;3.77;;
10605;SDS011;5350;42.698;23.148;2023-04-25T06:38:50;4.20;;;3.47;;
10605;SDS011;5350;42.698;23.148;2023-04-25T06:41:16;3.03;;;2.83;;
10605;SDS011;5350;42.698;23.148;2023-04-25T06:43:43;3.60;;;3.30;;
10605;SDS011;5350;42.698;23.148;2023-04-25T06:46:10;3.10;;;2.27;;
10605;SDS011;5350;42.698;23.148;2023-04-25T06:48:38;2.50;;;1.63;;
10605;SDS011;5350;42.698;23.148;2023-04-25T06:51:05;4.50;;;2.77;;
10605;SDS011;5350;42.698;23.148;2023-04-25T06:53:32;3.50;;;2.50;;
10605;SDS011;5350;42.698;23.148;2023-04-25T06:55:58;3.83;;;3.17;;
10605;SDS011;5350;42.698;23.148;2023-04-25T06:58:25;5.83;;;3.97;;
10605;SDS011;5350;42.698;23.148;2023-04-25T07:00:52;5.60;;;3.93;;
10605;SDS011;5350;42.698;23.148;2023-04-25T07:03:19;5.50;;;3.57;;
10605;SDS011;5350;42.698;23.148;2023-04-25T07:05:47;4.07;;;3.10;;
10605;SDS011;5350;42.698;23.148;2023-04-25T07:08:13;4.00;;;3.60;;
10605;SDS011;5350;42.698;23.148;2023-04-25T07:10:40;4.00;;;3.50;;
10605;SDS011;5350;42.698;23.148;2023-04-25T07:13:07;3.57;;;1.70;;
10605;SDS011;5350;42.698;23.148;2023-04-25T07:15:34;5.33;;;3.90;;
10605;SDS011;5350;42.698;23.148;2023-04-25T07:18:00;3.80;;;3.37;;
10605;SDS011;5350;42.698;23.148;2023-04-25T07:20:27;4.60;;;3.17;;
10605;SDS011;5350;42.698;23.148;2023-04-25T07:22:57;3.23;;;2.90;;
10605;SDS011;5350;42.698;23.148;2023-04-25T07:25:24;2.13;;;1.90;;
10605;SDS011;5350;42.698;23.148;2023-04-25T07:27:50;1.20;;;1.10;;
10605;SDS011;5350;42.698;23.148;2023-04-25T07:30:17;3.27;;;2.67;;
10605;SDS011;5350;42.698;23.148;2023-04-25T07:32:44;2.72;;;1.88;;
10605;SDS011;5350;42.698;23.148;2023-04-25T07:35:11;2.70;;;2.50;;
10605;SDS011;5350;42.698;23.148;2023-04-25T07:37:38;6.60;;;2.38;;
10605;SDS011;5350;42.698;23.148;2023-04-25T07:40:06;2.40;;;2.17;;
10605;SDS011;5350;42.698;23.148;2023-04-25T07:42:34;3.13;;;1.65;;
10605;SDS011;5350;42.698;23.148;2023-04-25T07:45:01;5.13;;;2.60;;
10605;SDS011;5350;42.698;23.148;2023-04-25T07:47:28;5.13;;;2.28;;
10605;SDS011;5350;42.698;23.148;2023-04-25T07:49:56;1.90;;;1.80;;
10605;SDS011;5350;42.698;23.148;2023-04-25T07:52:23;3.25;;;2.25;;
10605;SDS011;5350;42.698;23.148;2023-04-25T07:54:49;2.00;;;1.05;;
10605;SDS011;5350;42.698;23.148;2023-04-25T07:57:18;2.13;;;1.80;;
10605;SDS011;5350;42.698;23.148;2023-04-25T07:59:45;2.33;;;2.10;;
10605;SDS011;5350;42.698;23.148;2023-04-25T08:02:12;2.13;;;1.83;;
10605;SDS011;5350;42.698;23.148;2023-04-25T08:04:38;2.97;;;1.85;;
10605;SDS011;5350;42.698;23.148;2023-04-25T08:07:05;2.00;;;1.60;;
10605;SDS011;5350;42.698;23.148;2023-04-25T08:09:32;3.97;;;2.28;;
10605;SDS011;5350;42.698;23.148;2023-04-25T08:12:00;2.28;;;1.13;;
10605;SDS011;5350;42.698;23.148;2023-04-25T08:14:29;1.95;;;0.95;;
10605;SDS011;5350;42.698;23.148;2023-04-25T08:17:00;0.60;;;0.60;;
10605;SDS011;5350;42.698;23.148;2023-04-25T08:19:28;0.90;;;0.90;;
10605;SDS011;5350;42.698;23.148;2023-04-25T08:21:55;1.33;;;1.00;;
10605;SDS011;5350;42.698;23.148;2023-04-25T08:24:21;0.80;;;0.80;;
10605;SDS011;5350;42.698;23.148;2023-04-25T08:26:48;1.17;;;1.08;;
10605;SDS011;5350;42.698;23.148;2023-04-25T08:29:15;1.02;;;1.02;;
10605;SDS011;5350;42.698;23.148;2023-04-25T08:31:43;0.95;;;0.90;;
10605;SDS011;5350;42.698;23.148;2023-04-25T08:34:10;2.08;;;1.33;;
10605;SDS011;5350;42.698;23.148;2023-04-25T08:36:37;1.15;;;0.75;;
10605;SDS011;5350;42.698;23.148;2023-04-25T08:39:05;0.55;;;0.55;;
10605;SDS011;5350;42.698;23.148;2023-04-25T08:41:32;1.00;;;0.57;;
10605;SDS011;5350;42.698;23.148;2023-04-25T08:43:58;0.57;;;0.43;;
10605;SDS011;5350;42.698;23.148;2023-04-25T08:46:27;2.35;;;0.50;;
10605;SDS011;5350;42.698;23.148;2023-04-25T08:48:57;0.52;;;0.52;;
10605;SDS011;5350;42.698;23.148;2023-04-25T08:51:27;0.93;;;0.60;;
10605;SDS011;5350;42.698;23.148;2023-04-25T08:54:00;1.02;;;0.50;;
10605;SDS011;5350;42.698;23.148;2023-04-25T08:56:35;2.35;;;0.45;;
10605;SDS011;5350;42.698;23.148;2023-04-25T08:59:02;2.05;;;0.50;;
10605;SDS011;5350;42.698;23.148;2023-04-25T09:01:29;0.77;;;0.60;;
10605;SDS011;5350;42.698;23.148;2023-04-25T09:03:58;1.00;;;0.43;;
10605;SDS011;5350;42.698;23.148;2023-04-25T09:06:25;0.55;;;0.30;;
10605;SDS011;5350;42.698;23.148;2023-04-25T09:08:52;0.50;;;0.30;;
10605;SDS011;5350;42.698;23.148;2023-04-25T09:11:19;0.50;;;0.40;;
10605;SDS011;5350;42.698;23.148;2023-04-25T09:13:46;1.20;;;0.50;;
10605;SDS011;5350;42.698;23.148;2023-04-25T09:16:12;0.65;;;0.40;;
10605;SDS011;5350;42.698;23.148;2023-04-25T09:18:42;1.20;;;0.43;;
10605;SDS011;5350;42.698;23.148;2023-04-25T09:21:10;0.43;;;0.40;;
10605;SDS011;5350;42.698;23.148;2023-04-25T09:23:41;0.50;;;0.32;;
10605;SDS011;5350;42.698;23.148;2023-04-25T09:26:10;0.45;;;0.20;;
10605;SDS011;5350;42.698;23.148;2023-04-25T09:28:40;1.23;;;0.32;;
10605;SDS011;5350;42.698;23.148;2023-04-25T09:31:09;0.30;;;0.30;;
10605;SDS011;5350;42.698;23.148;2023-04-25T09:33:36;0.30;;;0.30;;
10605;SDS011;5350;42.698;23.148;2023-04-25T09:36:04;0.40;;;0.35;;
10605;SDS011;5350;42.698;23.148;2023-04-25T09:38:39;0.52;;;0.20;;
10605;SDS011;5350;42.698;23.148;2023-04-25T09:41:07;0.30;;;0.30;;
10605;SDS011;5350;42.698;23.148;2023-04-25T09:43:34;1.42;;;0.40;;
10605;SDS011;5350;42.698;23.148;2023-04-25T09:46:02;1.85;;;0.20;;
10605;SDS011;5350;42.698;23.148;2023-04-25T09:48:29;1.75;;;0.50;;
10605;SDS011;5350;42.698;23.148;2023-04-25T09:51:05;0.30;;;0.30;;
10605;SDS011;5350;42.698;23.148;2023-04-25T09:53:35;0.52;;;0.25;;
10605;SDS011;5350;42.698;23.148;2023-04-25T09:56:03;0.20;;;0.20;;
10605;SDS011;5350;42.698;23.148;2023-04-25T09:58:32;0.38;;;0.38;;
10605;SDS011;5350;42.698;23.148;2023-04-25T10:01:00;1.55;;;0.30;;
10605;SDS011;5350;42.698;23.148;2023-04-25T10:03:28;0.35;;;0.28;;
10605;SDS011;5350;42.698;23.148;2023-04-25T10:05:56;0.30;;;0.30;;
10605;SDS011;5350;42.698;23.148;2023-04-25T10:08:25;2.05;;;0.22;;
10605;SDS011;5350;42.698;23.148;2023-04-25T10:10:58;0.22;;;0.20;;
10605;SDS011;5350;42.698;23.148;2023-04-25T10:13:26;0.77;;;0.30;;
10605;SDS011;5350;42.698;23.148;2023-04-25T10:15:54;0.38;;;0.28;;
10605;SDS011;5350;42.698;23.148;2023-04-25T10:18:22;0.20;;;0.20;;
10605;SDS011;5350;42.698;23.148;2023-04-25T10:20:50;0.15;;;0.15;;
10605;SDS011;5350;42.698;23.148;2023-04-25T10:23:17;0.75;;;0.10;;
10605;SDS011;5350;42.698;23.148;2023-04-25T10:25:44;1.30;;;0.20;;
10605;SDS011;5350;42.698;23.148;2023-04-25T10:28:13;1.70;;;0.28;;
10605;SDS011;5350;42.698;23.148;2023-04-25T10:30:49;0.15;;;0.10;;
10605;SDS011;5350;42.698;23.148;2023-04-25T10:33:29;0.30;;;0.10;;
10605;SDS011;5350;42.698;23.148;2023-04-25T10:35:58;1.02;;;0.20;;
10605;SDS011;5350;42.698;23.148;2023-04-25T10:38:34;0.85;;;0.20;;
10605;SDS011;5350;42.698;23.148;2023-04-25T10:41:02;0.30;;;0.20;;
10605;SDS011;5350;42.698;23.148;2023-04-25T10:43:34;0.98;;;0.20;;
10605;SDS011;5350;42.698;23.148;2023-04-25T10:46:12;0.00;;;0.00;;
10605;SDS011;5350;42.698;23.148;2023-04-25T10:48:43;0.10;;;0.10;;
10605;SDS011;5350;42.698;23.148;2023-04-25T10:51:15;0.05;;;0.05;;
10605;SDS011;5350;42.698;23.148;2023-04-25T10:53:43;0.73;;;0.20;;
10605;SDS011;5350;42.698;23.148;2023-04-25T10:56:11;0.90;;;0.20;;
10605;SDS011;5350;42.698;23.148;2023-04-25T10:58:44;2.50;;;0.10;;
10605;SDS011;5350;42.698;23.148;2023-04-25T11:01:12;0.25;;;0.20;;
10605;SDS011;5350;42.698;23.148;2023-04-25T11:03:42;1.75;;;0.90;;
10605;SDS011;5350;42.698;23.148;2023-04-25T11:06:12;0.40;;;0.40;;
10605;SDS011;5350;42.698;23.148;2023-04-25T11:08:48;0.65;;;0.20;;
10605;SDS011;5350;42.698;23.148;2023-04-25T11:11:16;0.30;;;0.10;;
10605;SDS011;5350;42.698;23.148;2023-04-25T11:13:46;2.28;;;0.40;;
10605;SDS011;5350;42.698;23.148;2023-04-25T11:16:14;0.43;;;0.25;;
10605;SDS011;5350;42.698;23.148;2023-04-25T11:18:41;0.20;;;0.20;;
10605;SDS011;5350;42.698;23.148;2023-04-25T11:21:08;1.08;;;0.30;;
10605;SDS011;5350;42.698;23.148;2023-04-25T11:23:35;1.25;;;0.28;;
10605;SDS011;5350;42.698;23.148;2023-04-25T11:26:02;0.45;;;0.20;;
10605;SDS011;5350;42.698;23.148;2023-04-25T11:28:28;1.17;;;0.20;;
10605;SDS011;5350;42.698;23.148;2023-04-25T11:30:57;0.55;;;0.20;;
10605;SDS011;5350;42.698;23.148;2023-04-25T11:33:24;0.35;;;0.30;;
10605;SDS011;5350;42.698;23.148;2023-04-25T11:35:52;0.73;;;0.40;;
10605;SDS011;5350;42.698;23.148;2023-04-25T11:38:20;1.35;;;0.40;;
10605;SDS011;5350;42.698;23.148;2023-04-25T11:40:49;2.17;;;0.95;;
10605;SDS011;5350;42.698;23.148;2023-04-25T11:43:17;1.98;;;0.95;;
10605;SDS011;5350;42.698;23.148;2023-04-25T11:45:46;3.22;;;0.70;;
10605;SDS011;5350;42.698;23.148;2023-04-25T11:48:15;0.47;;;0.47;;
10605;SDS011;5350;42.698;23.148;2023-04-25T11:50:42;0.30;;;0.30;;
10605;SDS011;5350;42.698;23.148;2023-04-25T11:53:08;0.63;;;0.40;;
10605;SDS011;5350;42.698;23.148;2023-04-25T11:55:35;1.13;;;0.30;;
10605;SDS011;5350;42.698;23.148;2023-04-25T11:58:04;0.28;;;0.10;;
10605;SDS011;5350;42.698;23.148;2023-04-25T12:00:30;0.38;;;0.10;;
10605;SDS011;5350;42.698;23.148;2023-04-25T12:02:58;0.30;;;0.30;;
10605;SDS011;5350;42.698;23.148;2023-04-25T12:05:27;0.57;;;0.20;;
10605;SDS011;5350;42.698;23.148;2023-04-25T12:07:55;0.43;;;0.20;;
10605;SDS011;5350;42.698;23.148;2023-04-25T12:10:24;1.55;;;0.20;;
10605;SDS011;5350;42.698;23.148;2023-04-25T12:12:51;0.20;;;0.10;;
10605;SDS011;5350;42.698;23.148;2023-04-25T12:15:22;0.15;;;0.15;;
10605;SDS011;5350;42.698;23.148;2023-04-25T12:17:51;0.70;;;0.30;;
10605;SDS011;5350;42.698;23.148;2023-04-25T12:20:19;0.47;;;0.30;;
10605;SDS011;5350;42.698;23.148;2023-04-25T12:22:50;0.57;;;0.30;;
10605;SDS011;5350;42.698;23.148;2023-04-25T12:28:13;0.50;;;0.38;;
10605;SDS011;5350;42.698;23.148;2023-04-25T12:30:53;0.90;;;0.47;;
10605;SDS011;5350;42.698;23.148;2023-04-25T12:33:21;0.55;;;0.55;;
10605;SDS011;5350;42.698;23.148;2023-04-25T12:35:48;1.67;;;0.60;;
10605;SDS011;5350;42.698;23.148;2023-04-25T12:38:21;0.40;;;0.40;;
10605;SDS011;5350;42.698;23.148;2023-04-25T12:40:48;0.50;;;0.40;;
10605;SDS011;5350;42.698;23.148;2023-04-25T12:43:15;1.00;;;0.65;;
10605;SDS011;5350;42.698;23.148;2023-04-25T12:45:42;0.82;;;0.57;;
10605;SDS011;5350;42.698;23.148;2023-04-25T12:48:09;2.13;;;0.77;;
10605;SDS011;5350;42.698;23.148;2023-04-25T12:50:36;3.97;;;0.77;;
10605;SDS011;5350;42.698;23.148;2023-04-25T12:53:03;1.87;;;0.83;;
10605;SDS011;5350;42.698;23.148;2023-04-25T12:55:31;1.20;;;0.90;;
10605;SDS011;5350;42.698;23.148;2023-04-25T12:57:58;1.30;;;0.83;;
10605;SDS011;5350;42.698;23.148;2023-04-25T13:00:25;3.37;;;1.40;;
10605;SDS011;5350;42.698;23.148;2023-04-25T13:02:52;3.50;;;1.80;;
10605;SDS011;5350;42.698;23.148;2023-04-25T13:05:18;1.33;;;1.10;;
10605;SDS011;5350;42.698;23.148;2023-04-25T13:07:45;3.27;;;1.90;;
10605;SDS011;5350;42.698;23.148;2023-04-25T13:10:12;2.93;;;1.87;;
10605;SDS011;5350;42.698;23.148;2023-04-25T13:12:40;2.30;;;1.50;;
10605;SDS011;5350;42.698;23.148;2023-04-25T13:15:07;3.23;;;0.70;;
10605;SDS011;5350;42.698;23.148;2023-04-25T13:17:36;1.90;;;1.37;;
10605;SDS011;5350;42.698;23.148;2023-04-25T13:20:03;2.27;;;1.40;;
10605;SDS011;5350;42.698;23.148;2023-04-25T13:22:31;1.07;;;0.93;;
10605;SDS011;5350;42.698;23.148;2023-04-25T13:24:57;0.53;;;0.50;;
10605;SDS011;5350;42.698;23.148;2023-04-25T13:27:24;0.57;;;0.57;;
10605;SDS011;5350;42.698;23.148;2023-04-25T13:29:52;0.93;;;0.53;;
10605;SDS011;5350;42.698;23.148;2023-04-25T13:32:19;1.13;;;0.70;;
10605;SDS011;5350;42.698;23.148;2023-04-25T13:34:46;1.73;;;1.07;;
10605;SDS011;5350;42.698;23.148;2023-04-25T13:37:13;2.33;;;1.73;;
10605;SDS011;5350;42.698;23.148;2023-04-25T13:39:39;4.10;;;1.60;;
10605;SDS011;5350;42.698;23.148;2023-04-25T13:42:06;1.80;;;1.00;;
10605;SDS011;5350;42.698;23.148;2023-04-25T13:44:33;1.30;;;0.90;;
10605;SDS011;5350;42.698;23.148;2023-04-25T13:47:01;0.32;;;0.30;;
10605;SDS011;5350;42.698;23.148;2023-04-25T13:49:27;1.50;;;1.10;;
10605;SDS011;5350;42.698;23.148;2023-04-25T13:51:54;0.85;;;0.50;;
10605;SDS011;5350;42.698;23.148;2023-04-25T13:54:21;0.47;;;0.47;;
10605;SDS011;5350;42.698;23.148;2023-04-25T13:56:48;1.92;;;0.40;;
10605;SDS011;5350;42.698;23.148;2023-04-25T13:59:15;1.42;;;0.80;;
10605;SDS011;5350;42.698;23.148;2023-04-25T14:01:42;4.05;;;1.67;;
10605;SDS011;5350;42.698;23.148;2023-04-25T14:04:10;0.82;;;0.82;;
10605;SDS011;5350;42.698;23.148;2023-04-25T14:06:37;1.00;;;1.00;;
10605;SDS011;5350;42.698;23.148;2023-04-25T14:09:04;1.00;;;1.00;;
10605;SDS011;5350;42.698;23.148;2023-04-25T14:11:32;0.10;;;0.10;;
10605;SDS011;5350;42.698;23.148;2023-04-25T14:13:58;0.20;;;0.10;;
10605;SDS011;5350;42.698;23.148;2023-04-25T14:16:25;0.52;;;0.52;;
10605;SDS011;5350;42.698;23.148;2023-04-25T14:18:52;1.10;;;1.00;;
10605;SDS011;5350;42.698;23.148;2023-04-25T14:21:20;0.45;;;0.45;;
10605;SDS011;5350;42.698;23.148;2023-04-25T14:23:47;0.47;;;0.20;;
10605;SDS011;5350;42.698;23.148;2023-04-25T14:26:14;0.90;;;0.20;;
10605;SDS011;5350;42.698;23.148;2023-04-25T14:28:41;0.68;;;0.30;;
10605;SDS011;5350;42.698;23.148;2023-04-25T14:31:08;0.40;;;0.32;;
10605;SDS011;5350;42.698;23.148;2023-04-25T14:33:34;0.40;;;0.40;;
10605;SDS011;5350;42.698;23.148;2023-04-25T14:36:04;0.93;;;0.93;;
10605;SDS011;5350;42.698;23.148;2023-04-25T14:38:33;1.67;;;0.80;;
10605;SDS011;5350;42.698;23.148;2023-04-25T14:40:59;1.10;;;1.08;;
10605;SDS011;5350;42.698;23.148;2023-04-25T14:43:26;0.40;;;0.40;;
10605;SDS011;5350;42.698;23.148;2023-04-25T14:45:53;3.05;;;0.88;;
10605;SDS011;5350;42.698;23.148;2023-04-25T14:48:20;2.55;;;1.90;;
10605;SDS011;5350;42.698;23.148;2023-04-25T14:50:46;0.82;;;0.30;;
10605;SDS011;5350;42.698;23.148;2023-04-25T14:53:13;0.43;;;0.40;;